Sherman, Maine
Current Conditions -  °F | °C
As of 4:12 AM on Wednesday 28 Jan 2015 (Local Time) from KMLT Reporting Station
Light Snow Light Snow  
Wind Chill:   Ceiling: 3500
Heat Index: 13°   Visibility: 4mi
Dew Point:   Wind: 10mph
Humidity: 77%   Direction: 350°N
Pressure: 29.73"   Gusts: NA
Location:  45.8047°N, 68.2984°W
Report Text: KMLT 280912Z AUTO 35009KT 4SM -SN SCT024 OVC035 M11/M14 A2973 RMK AO2 P0000 T11061139
Loading
Personal Weather Stations






























Interactive Weather Map New forecast layout! Learn more

10-Day Weather Forecast

Advertisements
Track Severe Weather on mobile